Mammoth Hot Springs, Wyoming
Current Conditions -  °F | °C
As of 7:56 PM on Saturday 22 Nov 2014 (Local Time) from KDIJ Reporting Station
Clear Clear  
Wind Chill: 10°   Ceiling: Unl
Heat Index: 18°   Visibility: 10mi
Dew Point: 14°   Wind: 6mph
Humidity: 84%   Direction: 170°S
Pressure: 29.76"   Gusts: NA
Location:  44.5747°N, 110.518°W
Report Text: KDIJ 230256Z AUTO 17005KT 10SM CLR M08/M10 A2976 RMK AO2 53017 60001 T10771100 SLP085
Loading
Personal Weather Stations






























Interactive Weather Map New forecast layout! Learn more

10-Day Weather Forecast

Advertisements
Track Severe Weather on mobile